| time (UTC) | temp F | wind direction | speed knots | gust knots | rain 1hr in | rain 24hr in | rain mn in | humidity % | barometer mb |
| 20260903101233 | 89 | 180 | 0.0 | 0.0 | 0.00 | 0.00 | 0.00 | 38 | 1075.4 |
| 20260903100801 | 89 | 180 | 0.0 | 0.0 | 0.00 | 0.00 | 0.00 | 38 | 1075.4 |
| 20260903100329 | 89 | 180 | 0.0 | 0.0 | 0.00 | 0.00 | 0.00 | 38 | 1075.4 |
| 20260903095857 | 89 | 180 | 0.0 | 0.0 | 0.00 | 0.00 | 0.00 | 38 | 1075.5 |
| 20260903095426 | 89 | 180 | 0.0 | 0.0 | 0.00 | 0.00 | 0.00 | 38 | 1075.5 |
| 20260903094954 | 90 | 180 | 0.0 | 0.0 | 0.00 | 0.00 | 0.00 | 38 | 1075.6 |
| 20260903094522 | 90 | 180 | 0.0 | 0.0 | 0.00 | 0.00 | 0.00 | 38 | 1075.6 |
| 20260903094050 | 90 | 180 | 0.0 | 0.0 | 0.00 | 0.00 | 0.00 | 38 | 1075.5 |
| 20260903093617 | 91 | 180 | 0.0 | 0.0 | 0.00 | 0.00 | 0.00 | 38 | 1075.6 |
| 20260903093145 | 91 | 180 | 0.0 | 0.0 | 0.00 | 0.00 | 0.00 | 38 | 1075.6 |
| 20260903092713 | 92 | 180 | 0.0 | 0.0 | 0.00 | 0.00 | 0.00 | 38 | 1075.7 |
| 20260903092241 | 93 | 180 | 0.0 | 0.0 | 0.00 | 0.00 | 0.00 | 39 | 1075.8 |
| 20260903091808 | 94 | 180 | 0.0 | 0.0 | 0.00 | 0.00 | 0.00 | 39 | 1075.8 |
| 20260903090904 | 95 | 180 | 0.0 | 0.0 | 0.00 | 0.00 | 0.00 | 39 | 1075.7 |
| 20260903090431 | 95 | 180 | 0.0 | 0.0 | 0.00 | 0.00 | 0.00 | 39 | 1075.7 |
| 20260903085959 | 95 | 180 | 0.0 | 0.0 | 0.00 | 0.00 | 0.00 | 39 | 1075.6 |
| 20260903085526 | 95 | 180 | 0.0 | 0.0 | 0.00 | 0.00 | 0.00 | 40 | 1075.6 |
| 20260903085054 | 95 | 180 | 0.0 | 0.0 | 0.00 | 0.00 | 0.00 | 40 | 1075.5 |
| 20260903084621 | 96 | 180 | 0.0 | 0.0 | 0.00 | 0.00 | 0.00 | 40 | 1075.5 |
| 20260903084148 | 97 | 180 | 0.0 | 0.0 | 0.00 | 0.00 | 0.00 | 40 | 1075.4 |
| 20260903083715 | 98 | 180 | 0.0 | 0.0 | 0.00 | 0.00 | 0.00 | 40 | 1075.4 |
| 20260903083243 | 99 | 180 | 0.0 | 0.0 | 0.00 | 0.00 | 0.00 | 40 | 1075.6 |
| 20260903082810 | 100 | 180 | 0.0 | 0.0 | 0.00 | 0.00 | 0.00 | 40 | 1075.7 |
| 20260903082337 | 99 | 180 | 0.0 | 0.0 | 0.00 | 0.00 | 0.00 | 40 | 1075.9 |
| 20260903081904 | 98 | 180 | 0.0 | 0.0 | 0.00 | 0.00 | 0.00 | 41 | 1075.9 |
| 20260903081432 | 97 | 180 | 0.0 | 0.0 | 0.00 | 0.00 | 0.00 | 41 | 1075.9 |
| 20260903080959 | 95 | 180 | 0.0 | 0.0 | 0.00 | 0.00 | 0.00 | 42 | 1075.8 |
| 20260903080527 | 95 | 180 | 0.0 | 0.0 | 0.00 | 0.00 | 0.00 | 42 | 1075.7 |
| 20260903080058 | 95 | 180 | 0.0 | 0.0 | 0.00 | 0.00 | 0.00 | 42 | 1075.8 |
| 20260903080054 | 95 | 180 | 0.0 | 0.0 | 0.00 | 0.00 | 0.00 | 42 | 1075.8 |
| 20260903075621 | 95 | 180 | 0.0 | 0.0 | 0.00 | 0.00 | 0.00 | 42 | 1075.8 |
| 20260903075148 | 97 | 180 | 0.0 | 0.0 | 0.00 | 0.00 | 0.00 | 42 | 1075.9 |
| 20260903074715 | 98 | 180 | 0.0 | 0.0 | 0.00 | 0.00 | 0.00 | 42 | 1076.0 |
| 20260903073810 | 99 | 180 | 0.0 | 0.0 | 0.00 | 0.00 | 0.00 | 43 | 1076.1 |
| 20260903072909 | 94 | 180 | 0.0 | 0.0 | 0.00 | 0.00 | 0.00 | 45 | 1076.0 |
| 20260903072905 | 94 | 180 | 0.0 | 0.0 | 0.00 | 0.00 | 0.00 | 45 | 1076.0 |
| 20260903072436 | 93 | 180 | 0.0 | 0.0 | 0.00 | 0.00 | 0.00 | 46 | 1076.1 |
| 20260903072433 | 93 | 180 | 0.0 | 0.0 | 0.00 | 0.00 | 0.00 | 46 | 1076.1 |
| 20260903072000 | 91 | 180 | 0.0 | 0.0 | 0.00 | 0.00 | 0.00 | 47 | 1076.1 |
| 20260903071056 | 91 | 180 | 0.0 | 0.0 | 0.00 | 0.00 | 0.00 | 48 | 1076.0 |
| 20260903070627 | 93 | 180 | 0.0 | 0.0 | 0.00 | 0.00 | 0.00 | 48 | 1076.0 |
| 20260903070623 | 93 | 180 | 0.0 | 0.0 | 0.00 | 0.00 | 0.00 | 48 | 1076.0 |
| 20260903070154 | 95 | 180 | 0.0 | 0.0 | 0.00 | 0.00 | 0.00 | 48 | 1076.0 |
| 20260903070150 | 95 | 180 | 0.0 | 0.0 | 0.00 | 0.00 | 0.00 | 48 | 1076.0 |
| 20260903065721 | 96 | 180 | 0.0 | 0.0 | 0.00 | 0.00 | 0.00 | 48 | 1076.1 |
| 20260903065249 | 96 | 180 | 0.0 | 0.0 | 0.00 | 0.00 | 0.00 | 48 | 1076.1 |
| 20260903065245 | 96 | 180 | 0.0 | 0.0 | 0.00 | 0.00 | 0.00 | 48 | 1076.1 |
| 20260903064813 | 94 | 180 | 0.0 | 0.0 | 0.00 | 0.00 | 0.00 | 50 | 1076.1 |
| 20260903064344 | 93 | 180 | 0.0 | 0.0 | 0.00 | 0.00 | 0.00 | 51 | 1076.2 |
| 20260903064340 | 93 | 180 | 0.0 | 0.0 | 0.00 | 0.00 | 0.00 | 51 | 1076.2 |
| 20260903063912 | 0 | 180 | 0.0 | 0.0 | 0.00 | 0.00 | 0.00 | 53 | |
| 20260903063908 | 91 | 180 | 0.0 | 0.0 | 0.00 | 0.00 | 0.00 | 53 | 1076.1 |
| 20260903063440 | 89 | 180 | 0.0 | 0.0 | 0.00 | 0.00 | 0.00 | 55 | 1076.0 |
| 20260903063008 | 86 | 180 | 0.0 | 0.0 | 0.00 | 0.00 | 0.00 | 57 | 1076.0 |
| 20260903063004 | 86 | 180 | 0.0 | 0.0 | 0.00 | 0.00 | 0.00 | 57 | 1076.0 |
| 20260903062533 | 84 | 180 | 0.0 | 0.0 | 0.00 | 0.00 | 0.00 | 60 | 1076.0 |
| 20260903062101 | 81 | 180 | 0.0 | 0.0 | 0.00 | 0.00 | 0.00 | 63 | 1075.9 |
| 20260903061635 | 79 | 180 | 0.0 | 0.0 | 0.00 | 0.00 | 0.00 | 67 | 1076.0 |
| 20260903061630 | 79 | 180 | 0.0 | 0.0 | 0.00 | 0.00 | 0.00 | 67 | 1076.0 |
| 20260903061204 | 75 | 180 | 0.0 | 0.0 | 0.00 | 0.00 | 0.00 | 73 | 1076.0 |
| 20260903061159 | 75 | 180 | 0.0 | 0.0 | 0.00 | 0.00 | 0.00 | 73 | 1076.0 |
| 20260903060729 | 72 | 180 | 0.0 | 0.0 | 0.00 | 0.00 | 0.00 | 79 | 1075.9 |
| 20260903060302 | 68 | 180 | 0.0 | 0.0 | 0.00 | 0.00 | 0.00 | 87 | 1075.9 |
| 20260903054932 | 60 | 180 | 0.0 | 0.0 | 0.00 | 0.00 | 0.00 | 100 | 1075.8 |
| 20260903054502 | 60 | 180 | 0.0 | 0.0 | 0.00 | 0.00 | 0.00 | 100 | 1075.7 |
| 20260903054032 | 60 | 180 | 0.0 | 0.0 | 0.00 | 0.00 | 0.00 | 100 | 1075.6 |
| 20260903054028 | 60 | 180 | 0.0 | 0.0 | 0.00 | 0.00 | 0.00 | 100 | 1075.6 |
| 20260903053601 | 59 | 180 | 0.0 | 0.0 | 0.00 | 0.00 | 0.00 | 100 | 1075.7 |
| 20260903053557 | 59 | 180 | 0.0 | 0.0 | 0.00 | 0.00 | 0.00 | 100 | 1075.7 |
| 20260903053132 | 59 | 180 | 0.0 | 0.0 | 0.00 | 0.00 | 0.00 | 100 | 1075.6 |
| 20260903053127 | 59 | 180 | 0.0 | 0.0 | 0.00 | 0.00 | 0.00 | 100 | 1075.6 |
| 20260903052701 | 59 | 180 | 0.0 | 0.0 | 0.00 | 0.00 | 0.00 | 100 | 1075.6 |
| 20260903052657 | 59 | 180 | 0.0 | 0.0 | 0.00 | 0.00 | 0.00 | 100 | 1075.6 |
| 20260903051757 | 59 | 180 | 0.0 | 0.0 | 0.00 | 0.00 | 0.00 | 100 | 1075.6 |
| 20260903051327 | 59 | 180 | 0.0 | 0.0 | 0.00 | 0.00 | 0.00 | 100 | 1075.6 |
| 20260903050901 | 59 | 180 | 0.0 | 0.0 | 0.00 | 0.00 | 0.00 | 100 | 1075.6 |
| 20260903050857 | 59 | 180 | 0.0 | 0.0 | 0.00 | 0.00 | 0.00 | 100 | 1075.6 |
| 20260903050431 | 59 | 180 | 0.0 | 0.0 | 0.00 | 0.00 | 0.00 | 100 | 1075.5 |
| 20260903050427 | 59 | 180 | 0.0 | 0.0 | 0.00 | 0.00 | 0.00 | 100 | 1075.5 |
| 20260903045531 | 59 | 180 | 0.0 | 0.0 | 0.00 | 0.00 | 0.00 | 100 | 1075.4 |
| 20260903045527 | 59 | 180 | 0.0 | 0.0 | 0.00 | 0.00 | 0.00 | 100 | 1075.4 |
| 20260903044630 | 59 | 180 | 0.0 | 0.0 | 0.00 | 0.00 | 0.00 | 100 | 1075.5 |
| 20260903044626 | 59 | 180 | 0.0 | 0.0 | 0.00 | 0.00 | 0.00 | 100 | 1075.5 |
| 20260903044200 | 59 | 180 | 0.0 | 0.0 | 0.00 | 0.00 | 0.00 | 100 | 1075.5 |
| 20260903044156 | 59 | 180 | 0.0 | 0.0 | 0.00 | 0.00 | 0.00 | 100 | 1075.5 |
| 20260903043730 | 59 | 180 | 0.0 | 0.0 | 0.00 | 0.00 | 0.00 | 100 | 1075.4 |
| 20260903043726 | 59 | 180 | 0.0 | 0.0 | 0.00 | 0.00 | 0.00 | 100 | 1075.4 |
| 20260903043300 | 59 | 180 | 0.0 | 0.0 | 0.00 | 0.00 | 0.00 | 100 | 1075.5 |
| 20260903043256 | 59 | 180 | 0.0 | 0.0 | 0.00 | 0.00 | 0.00 | 100 | 1075.5 |
| 20260903042826 | 59 | 180 | 0.0 | 0.0 | 0.00 | 0.00 | 0.00 | 100 | 1075.5 |
| 20260903042400 | 59 | 180 | 0.0 | 0.0 | 0.00 | 0.00 | 0.00 | 100 | 1075.5 |
| 20260903042356 | 59 | 180 | 0.0 | 0.0 | 0.00 | 0.00 | 0.00 | 100 | 1075.5 |
| 20260903041930 | 59 | 180 | 0.0 | 0.0 | 0.00 | 0.00 | 0.00 | 100 | 1075.5 |
| 20260903041926 | 59 | 180 | 0.0 | 0.0 | 0.00 | 0.00 | 0.00 | 100 | 1075.5 |
| 20260903041459 | 59 | 180 | 0.0 | 0.0 | 0.00 | 0.00 | 0.00 | 100 | 1075.5 |
| 20260903041456 | 59 | 180 | 0.0 | 0.0 | 0.00 | 0.00 | 0.00 | 100 | 1075.5 |
| 20260903041029 | 59 | 180 | 0.0 | 0.0 | 0.00 | 0.00 | 0.00 | 100 | 1075.5 |
| 20260903041026 | 59 | 180 | 0.0 | 0.0 | 0.00 | 0.00 | 0.00 | 100 | 1075.5 |
| 20260903040129 | 59 | 180 | 0.0 | 0.0 | 0.00 | 0.00 | 0.00 | 100 | 1075.3 |
| 20260903040125 | 59 | 180 | 0.0 | 0.0 | 0.00 | 0.00 | 0.00 | 100 | 1075.3 |
| 20260903035659 | 59 | 180 | 0.0 | 0.0 | 0.00 | 0.00 | 0.00 | 100 | 1075.3 |
| 20260903035655 | 59 | 180 | 0.0 | 0.0 | 0.00 | 0.00 | 0.00 | 100 | 1075.3 |
| 20260903035229 | 59 | 180 | 0.0 | 0.0 | 0.00 | 0.00 | 0.00 | 100 | 1075.3 |
| 20260903035225 | 59 | 180 | 0.0 | 0.0 | 0.00 | 0.00 | 0.00 | 100 | 1075.3 |
| 20260903034759 | 59 | 180 | 0.0 | 0.0 | 0.00 | 0.00 | 0.00 | 100 | 1075.3 |
| 20260903034755 | 59 | 180 | 0.0 | 0.0 | 0.00 | 0.00 | 0.00 | 100 | 1075.3 |
| 20260903034329 | 59 | 180 | 0.0 | 0.0 | 0.00 | 0.00 | 0.00 | 100 | 1075.3 |
| 20260903034325 | 59 | 180 | 0.0 | 0.0 | 0.00 | 0.00 | 0.00 | 100 | 1075.3 |
| 20260903033425 | 60 | 180 | 0.0 | 0.0 | 0.00 | 0.00 | 0.00 | 100 | 1075.3 |
| 20260903032958 | 60 | 180 | 0.0 | 0.0 | 0.00 | 0.00 | 0.00 | 100 | 1075.3 |
| 20260903032954 | 60 | 180 | 0.0 | 0.0 | 0.00 | 0.00 | 0.00 | 100 | 1075.3 |
| 20260903032528 | 60 | 180 | 0.0 | 0.0 | 0.00 | 0.00 | 0.00 | 100 | 1075.4 |
| 20260903032524 | 60 | 180 | 0.0 | 0.0 | 0.00 | 0.00 | 0.00 | 100 | 1075.4 |
| 20260903032058 | 60 | 180 | 0.0 | 0.0 | 0.00 | 0.00 | 0.00 | 100 | 1075.4 |
| 20260903032054 | 60 | 180 | 0.0 | 0.0 | 0.00 | 0.00 | 0.00 | 100 | 1075.4 |
| 20260903031628 | 60 | 180 | 0.0 | 0.0 | 0.00 | 0.00 | 0.00 | 100 | 1075.4 |
| 20260903031624 | 60 | 180 | 0.0 | 0.0 | 0.00 | 0.00 | 0.00 | 100 | 1075.4 |
| 20260903031158 | 60 | 180 | 0.0 | 0.0 | 0.00 | 0.00 | 0.00 | 100 | 1075.4 |
| 20260903031154 | 60 | 180 | 0.0 | 0.0 | 0.00 | 0.00 | 0.00 | 100 | 1075.4 |
| 20260903030728 | 60 | 180 | 0.0 | 0.0 | 0.00 | 0.00 | 0.00 | 100 | 1075.4 |
| 20260903025827 | 60 | 180 | 0.0 | 0.0 | 0.00 | 0.00 | 0.00 | 100 | 1075.4 |
| 20260903025823 | 60 | 180 | 0.0 | 0.0 | 0.00 | 0.00 | 0.00 | 100 | 1075.4 |
| 20260903025357 | 60 | 180 | 0.0 | 0.0 | 0.00 | 0.00 | 0.00 | 100 | 1075.5 |
| 20260903025353 | 60 | 180 | 0.0 | 0.0 | 0.00 | 0.00 | 0.00 | 100 | 1075.5 |
| 20260903024927 | 60 | 180 | 0.0 | 0.0 | 0.00 | 0.00 | 0.00 | 100 | 1075.4 |
| 20260903024923 | 60 | 180 | 0.0 | 0.0 | 0.00 | 0.00 | 0.00 | 100 | 1075.4 |
| 20260903024457 | 60 | 180 | 0.0 | 0.0 | 0.00 | 0.00 | 0.00 | 100 | 1075.4 |
| 20260903024026 | 60 | 180 | 0.0 | 0.0 | 0.00 | 0.00 | 0.00 | 100 | 1075.5 |
| 20260903024023 | 60 | 180 | 0.0 | 0.0 | 0.00 | 0.00 | 0.00 | 100 | 1075.5 |
| 20260903023557 | 60 | 180 | 0.0 | 0.0 | 0.00 | 0.00 | 0.00 | 100 | 1075.4 |
| 20260903023553 | 60 | 180 | 0.0 | 0.0 | 0.00 | 0.00 | 0.00 | 100 | 1075.4 |
| 20260903023127 | 60 | 180 | 0.0 | 0.0 | 0.00 | 0.00 | 0.00 | 100 | 1075.4 |
| 20260903023122 | 60 | 180 | 0.0 | 0.0 | 0.00 | 0.00 | 0.00 | 100 | 1075.4 |
| 20260903022657 | 60 | 180 | 0.0 | 0.0 | 0.00 | 0.00 | 0.00 | 100 | 1075.3 |
| 20260903022652 | 60 | 180 | 0.0 | 0.0 | 0.00 | 0.00 | 0.00 | 100 | 1075.3 |
| 20260903022227 | 60 | 180 | 0.0 | 0.0 | 0.00 | 0.00 | 0.00 | 100 | 1075.3 |
| 20260903021756 | 60 | 180 | 0.0 | 0.0 | 0.00 | 0.00 | 0.00 | 100 | 1075.3 |
| 20260903021752 | 60 | 180 | 0.0 | 0.0 | 0.00 | 0.00 | 0.00 | 100 | 1075.3 |
| 20260903021322 | 60 | 180 | 0.0 | 0.0 | 0.00 | 0.00 | 0.00 | 99 | 1075.2 |
| 20260903020856 | 60 | 180 | 0.0 | 0.0 | 0.00 | 0.00 | 0.00 | 98 | 1075.3 |
| 20260903020852 | 60 | 180 | 0.0 | 0.0 | 0.00 | 0.00 | 0.00 | 98 | 1075.3 |
| 20260903020425 | 60 | 180 | 0.0 | 0.0 | 0.00 | 0.00 | 0.00 | 98 | 1075.2 |
| 20260903020421 | 60 | 180 | 0.0 | 0.0 | 0.00 | 0.00 | 0.00 | 98 | 1075.2 |
| 20260903015955 | 60 | 180 | 0.0 | 0.0 | 0.00 | 0.00 | 0.00 | 97 | 1075.2 |
| 20260903015951 | 60 | 180 | 0.0 | 0.0 | 0.00 | 0.00 | 0.00 | 97 | 1075.2 |
| 20260903015525 | 60 | 180 | 0.0 | 0.0 | 0.00 | 0.00 | 0.00 | 97 | 1075.3 |
| 20260903015521 | 60 | 180 | 0.0 | 0.0 | 0.00 | 0.00 | 0.00 | 97 | 1075.3 |
| 20260903015055 | 60 | 180 | 0.0 | 0.0 | 0.00 | 0.00 | 0.00 | 95 | 1075.3 |
| 20260903015051 | 60 | 180 | 0.0 | 0.0 | 0.00 | 0.00 | 0.00 | 95 | 1075.3 |
| 20260903014624 | 60 | 180 | 0.0 | 0.0 | 0.00 | 0.00 | 0.00 | 95 | 1075.2 |
| 20260903014621 | 60 | 180 | 0.0 | 0.0 | 0.00 | 0.00 | 0.00 | 95 | 1075.2 |
| 20260903014154 | 60 | 180 | 0.0 | 0.0 | 0.00 | 0.00 | 0.00 | 94 | 1075.2 |
| 20260903014150 | 60 | 180 | 0.0 | 0.0 | 0.00 | 0.00 | 0.00 | 94 | 1075.2 |
| 20260903013724 | 61 | 180 | 0.0 | 0.0 | 0.00 | 0.00 | 0.00 | 94 | 1075.2 |
| 20260903013720 | 61 | 180 | 0.0 | 0.0 | 0.00 | 0.00 | 0.00 | 94 | 1075.2 |
| 20260903013254 | 61 | 180 | 0.0 | 0.0 | 0.00 | 0.00 | 0.00 | 93 | 1075.2 |
| 20260903013250 | 61 | 180 | 0.0 | 0.0 | 0.00 | 0.00 | 0.00 | 93 | 1075.2 |
| 20260903012824 | 61 | 180 | 0.0 | 0.0 | 0.00 | 0.00 | 0.00 | 93 | 1075.3 |
| 20260903012820 | 61 | 180 | 0.0 | 0.0 | 0.00 | 0.00 | 0.00 | 93 | 1075.3 |
| 20260903012353 | 61 | 180 | 0.0 | 0.0 | 0.00 | 0.00 | 0.00 | 92 | 1075.3 |
| 20260903012350 | 61 | 180 | 0.0 | 0.0 | 0.00 | 0.00 | 0.00 | 92 | 1075.3 |
| 20260903011923 | 61 | 180 | 0.0 | 0.0 | 0.00 | 0.00 | 0.00 | 92 | 1075.3 |
| 20260903011919 | 61 | 180 | 0.0 | 0.0 | 0.00 | 0.00 | 0.00 | 92 | 1075.3 |
| 20260903011453 | 61 | 180 | 0.0 | 0.0 | 0.00 | 0.00 | 0.00 | 92 | 1075.3 |
| 20260903011449 | 61 | 180 | 0.0 | 0.0 | 0.00 | 0.00 | 0.00 | 92 | 1075.3 |
| 20260903011019 | 61 | 180 | 0.0 | 0.0 | 0.00 | 0.00 | 0.00 | 92 | 1075.2 |
| 20260903010553 | 61 | 180 | 0.0 | 0.0 | 0.00 | 0.00 | 0.00 | 91 | 1075.2 |
| 20260903010549 | 61 | 180 | 0.0 | 0.0 | 0.00 | 0.00 | 0.00 | 91 | 1075.2 |
| 20260903010122 | 61 | 180 | 0.0 | 0.0 | 0.00 | 0.00 | 0.00 | 90 | 1075.4 |
| 20260903010119 | 61 | 180 | 0.0 | 0.0 | 0.00 | 0.00 | 0.00 | 90 | 1075.4 |
| 20260903005652 | 61 | 180 | 0.0 | 0.0 | 0.00 | 0.00 | 0.00 | 90 | 1075.3 |
| 20260903005648 | 61 | 180 | 0.0 | 0.0 | 0.00 | 0.00 | 0.00 | 90 | 1075.3 |
| 20260903005222 | 61 | 180 | 0.0 | 0.0 | 0.00 | 0.00 | 0.00 | 91 | 1075.3 |
| 20260903004752 | 61 | 180 | 0.0 | 0.0 | 0.00 | 0.00 | 0.00 | 91 | 1075.3 |
| 20260903004748 | 61 | 180 | 0.0 | 0.0 | 0.00 | 0.00 | 0.00 | 91 | 1075.3 |
| 20260903004322 | 61 | 180 | 0.0 | 0.0 | 0.00 | 0.00 | 0.00 | 90 | 1075.3 |
| 20260903004318 | 61 | 180 | 0.0 | 0.0 | 0.00 | 0.00 | 0.00 | 90 | 1075.3 |
| 20260903003851 | 61 | 180 | 0.0 | 0.0 | 0.00 | 0.00 | 0.00 | 90 | 1075.3 |
| 20260903003848 | 61 | 180 | 0.0 | 0.0 | 0.00 | 0.00 | 0.00 | 90 | 1075.3 |
| 20260903003421 | 61 | 180 | 0.0 | 0.0 | 0.00 | 0.00 | 0.00 | 89 | 1075.2 |
| 20260903003417 | 61 | 180 | 0.0 | 0.0 | 0.00 | 0.00 | 0.00 | 89 | 1075.2 |
| 20260903002951 | 61 | 180 | 0.0 | 0.0 | 0.00 | 0.00 | 0.00 | 89 | 1075.2 |
| 20260903002947 | 61 | 180 | 0.0 | 0.0 | 0.00 | 0.00 | 0.00 | 89 | 1075.2 |
| 20260903002521 | 61 | 180 | 0.0 | 0.0 | 0.00 | 0.00 | 0.00 | 89 | 1075.2 |
| 20260903002517 | 61 | 180 | 0.0 | 0.0 | 0.00 | 0.00 | 0.00 | 89 | 1075.2 |
| 20260903002050 | 61 | 180 | 0.0 | 0.0 | 0.00 | 0.00 | 0.00 | 88 | 1075.2 |
| 20260903002047 | 61 | 180 | 0.0 | 0.0 | 0.00 | 0.00 | 0.00 | 88 | 1075.2 |
| 20260903001620 | 61 | 180 | 0.0 | 0.0 | 0.00 | 0.00 | 0.00 | 87 | 1075.2 |
| 20260903001616 | 61 | 180 | 0.0 | 0.0 | 0.00 | 0.00 | 0.00 | 87 | 1075.2 |
| 20260903001150 | 61 | 180 | 0.0 | 0.0 | 0.00 | 0.00 | 0.00 | 87 | 1075.2 |
| 20260903001146 | 61 | 180 | 0.0 | 0.0 | 0.00 | 0.00 | 0.00 | 87 | 1075.2 |
| 20260903000720 | 61 | 180 | 0.0 | 0.0 | 0.00 | 0.00 | 0.00 | 86 | 1075.3 |
| 20260903000716 | 61 | 180 | 0.0 | 0.0 | 0.00 | 0.00 | 0.00 | 86 | 1075.3 |
| 20260903000248 | 61 | 180 | 0.0 | 0.0 | 0.00 | 0.00 | 0.00 | 86 | 1075.3 |
| 20260902235819 | 61 | 180 | 0.0 | 0.0 | 0.00 | 0.00 | 0.00 | 86 | 1075.2 |
| 20260902235816 | 61 | 180 | 0.0 | 0.0 | 0.00 | 0.00 | 0.00 | 86 | 1075.2 |
| 20260902235350 | 61 | 180 | 0.0 | 0.0 | 0.00 | 0.00 | 0.00 | 86 | 1075.2 |
| 20260902235345 | 61 | 180 | 0.0 | 0.0 | 0.00 | 0.00 | 0.00 | 86 | 1075.2 |
| 20260902234915 | 61 | 180 | 0.0 | 0.0 | 0.00 | 0.00 | 0.00 | 86 | 1075.2 |
| 20260902234449 | 61 | 180 | 0.0 | 0.0 | 0.00 | 0.00 | 0.00 | 86 | 1075.3 |
| 20260902234445 | 61 | 180 | 0.0 | 0.0 | 0.00 | 0.00 | 0.00 | 86 | 1075.3 |
| 20260902234018 | 61 | 180 | 0.0 | 0.0 | 0.00 | 0.00 | 0.00 | 87 | 1075.3 |
| 20260902234015 | 61 | 180 | 0.0 | 0.0 | 0.00 | 0.00 | 0.00 | 87 | 1075.3 |
| 20260902233548 | 61 | 180 | 0.0 | 0.0 | 0.00 | 0.00 | 0.00 | 87 | 1075.3 |
| 20260902233544 | 61 | 180 | 0.0 | 0.0 | 0.00 | 0.00 | 0.00 | 87 | 1075.3 |
| 20260902233118 | 61 | 180 | 0.0 | 0.0 | 0.00 | 0.00 | 0.00 | 88 | 1075.4 |
| 20260902233114 | 61 | 180 | 0.0 | 0.0 | 0.00 | 0.00 | 0.00 | 88 | 1075.4 |
| 20260902232644 | 61 | 180 | 0.0 | 0.0 | 0.00 | 0.00 | 0.00 | 88 | 1075.4 |
| 20260902232218 | 61 | 180 | 0.0 | 0.0 | 0.00 | 0.00 | 0.00 | 89 | 1075.4 |
| 20260902232214 | 61 | 180 | 0.0 | 0.0 | 0.00 | 0.00 | 0.00 | 89 | 1075.4 |
| 20260902231748 | 61 | 180 | 0.0 | 0.0 | 0.00 | 0.00 | 0.00 | 89 | 1075.4 |
| 20260902231744 | 61 | 180 | 0.0 | 0.0 | 0.00 | 0.00 | 0.00 | 89 | 1075.4 |
| 20260902231317 | 61 | 180 | 0.0 | 0.0 | 0.00 | 0.00 | 0.00 | 89 | 1075.4 |
| 20260902231313 | 61 | 180 | 0.0 | 0.0 | 0.00 | 0.00 | 0.00 | 89 | 1075.4 |
| 20260902230843 | 61 | 180 | 0.0 | 0.0 | 0.00 | 0.00 | 0.00 | 88 | 1075.3 |
| 20260902230417 | 61 | 180 | 0.0 | 0.0 | 0.00 | 0.00 | 0.00 | 89 | 1075.3 |
| 20260902230413 | 61 | 180 | 0.0 | 0.0 | 0.00 | 0.00 | 0.00 | 89 | 1075.3 |
| 20260902225946 | 61 | 180 | 0.0 | 0.0 | 0.00 | 0.00 | 0.00 | 89 | 1075.3 |
| 20260902225943 | 61 | 180 | 0.0 | 0.0 | 0.00 | 0.00 | 0.00 | 89 | 1075.3 |
| 20260902225516 | 61 | 180 | 0.0 | 0.0 | 0.00 | 0.00 | 0.00 | 88 | 1075.3 |
| 20260902225512 | 61 | 180 | 0.0 | 0.0 | 0.00 | 0.00 | 0.00 | 88 | 1075.3 |
| 20260902225046 | 61 | 180 | 0.0 | 0.0 | 0.00 | 0.00 | 0.00 | 89 | 1075.3 |
| 20260902225042 | 61 | 180 | 0.0 | 0.0 | 0.00 | 0.00 | 0.00 | 89 | 1075.3 |
| 20260902224616 | 61 | 180 | 0.0 | 0.0 | 0.00 | 0.00 | 0.00 | 89 | 1075.3 |
| 20260902224612 | 61 | 180 | 0.0 | 0.0 | 0.00 | 0.00 | 0.00 | 89 | 1075.3 |
| 20260902224145 | 61 | 180 | 0.0 | 0.0 | 0.00 | 0.00 | 0.00 | 89 | 1075.4 |
| 20260902224142 | 61 | 180 | 0.0 | 0.0 | 0.00 | 0.00 | 0.00 | 89 | 1075.4 |
| 20260902223715 | 61 | 180 | 0.0 | 0.0 | 0.00 | 0.00 | 0.00 | 88 | 1075.4 |
| 20260902223711 | 61 | 180 | 0.0 | 0.0 | 0.00 | 0.00 | 0.00 | 88 | 1075.4 |
| 20260902223245 | 61 | 180 | 0.0 | 0.0 | 0.00 | 0.00 | 0.00 | 87 | 1075.5 |
| 20260902223241 | 61 | 180 | 0.0 | 0.0 | 0.00 | 0.00 | 0.00 | 87 | 1075.5 |
| 20260902222815 | 61 | 180 | 0.0 | 0.0 | 0.00 | 0.00 | 0.00 | 88 | 1075.5 |
| 20260902222811 | 61 | 180 | 0.0 | 0.0 | 0.00 | 0.00 | 0.00 | 88 | 1075.5 |
| 20260902222344 | 61 | 180 | 0.0 | 0.0 | 0.00 | 0.00 | 0.00 | 86 | 1075.5 |
| 20260902222341 | 61 | 180 | 0.0 | 0.0 | 0.00 | 0.00 | 0.00 | 86 | 1075.5 |
| 20260902221914 | 61 | 180 | 0.0 | 0.0 | 0.00 | 0.00 | 0.00 | 87 | 1075.4 |
| 20260902221910 | 61 | 180 | 0.0 | 0.0 | 0.00 | 0.00 | 0.00 | 87 | 1075.4 |
| 20260902221444 | 61 | 180 | 0.0 | 0.0 | 0.00 | 0.00 | 0.00 | 86 | 1075.4 |
| 20260902221440 | 61 | 180 | 0.0 | 0.0 | 0.00 | 0.00 | 0.00 | 86 | 1075.4 |
| 20260902221014 | 61 | 180 | 0.0 | 0.0 | 0.00 | 0.00 | 0.00 | 84 | 1075.4 |
| 20260902221010 | 61 | 180 | 0.0 | 0.0 | 0.00 | 0.00 | 0.00 | 84 | 1075.4 |
| 20260902220540 | 61 | 180 | 0.0 | 0.0 | 0.00 | 0.00 | 0.00 | 81 | 1075.4 |
| 20260902220113 | 61 | 180 | 0.0 | 0.0 | 0.00 | 0.00 | 0.00 | 80 | 1075.4 |
| 20260902220109 | 61 | 180 | 0.0 | 0.0 | 0.00 | 0.00 | 0.00 | 80 | 1075.4 |
| 20260902215643 | 62 | 180 | 0.0 | 0.0 | 0.00 | 0.00 | 0.00 | 78 | 1075.4 |
| 20260902215209 | 62 | 180 | 0.0 | 0.0 | 0.00 | 0.00 | 0.00 | 77 | 1075.4 |
| 20260902214742 | 62 | 180 | 0.0 | 0.0 | 0.00 | 0.00 | 0.00 | 77 | 1075.4 |
| 20260902214739 | 62 | 180 | 0.0 | 0.0 | 0.00 | 0.00 | 0.00 | 77 | 1075.4 |
| 20260902214308 | 62 | 180 | 0.0 | 0.0 | 0.00 | 0.00 | 0.00 | 76 | 1075.4 |
| 20260902213842 | 62 | 180 | 0.0 | 0.0 | 0.00 | 0.00 | 0.00 | 76 | 1075.3 |
| 20260902213838 | 62 | 180 | 0.0 | 0.0 | 0.00 | 0.00 | 0.00 | 76 | 1075.3 |
| 20260902213412 | 62 | 180 | 0.0 | 0.0 | 0.00 | 0.00 | 0.00 | 75 | 1075.3 |
| 20260902213408 | 62 | 180 | 0.0 | 0.0 | 0.00 | 0.00 | 0.00 | 75 | 1075.3 |
| 20260902212941 | 62 | 180 | 0.0 | 0.0 | 0.00 | 0.00 | 0.00 | 74 | 1075.3 |
| 20260902212937 | 62 | 180 | 0.0 | 0.0 | 0.00 | 0.00 | 0.00 | 74 | 1075.3 |
| 20260902212511 | 62 | 180 | 0.0 | 0.0 | 0.00 | 0.00 | 0.00 | 73 | 1075.3 |
| 20260902212507 | 62 | 180 | 0.0 | 0.0 | 0.00 | 0.00 | 0.00 | 73 | 1075.3 |
| 20260902212037 | 62 | 180 | 0.0 | 0.0 | 0.00 | 0.00 | 0.00 | 73 | 1075.3 |
| 20260902211607 | 63 | 180 | 0.0 | 0.0 | 0.00 | 0.00 | 0.00 | 72 | 1075.3 |
| 20260902211140 | 63 | 180 | 0.0 | 0.0 | 0.00 | 0.00 | 0.00 | 71 | 1075.2 |
| 20260902210710 | 63 | 180 | 0.0 | 0.0 | 0.00 | 0.00 | 0.00 | 72 | 1075.2 |
| 20260902210706 | 63 | 180 | 0.0 | 0.0 | 0.00 | 0.00 | 0.00 | 72 | 1075.2 |
| 20260902210239 | 63 | 180 | 0.0 | 0.0 | 0.00 | 0.00 | 0.00 | 71 | 1075.1 |
| 20260902210236 | 63 | 180 | 0.0 | 0.0 | 0.00 | 0.00 | 0.00 | 71 | 1075.1 |
| 20260902205809 | 63 | 180 | 0.0 | 0.0 | 0.00 | 0.00 | 0.00 | 72 | 1075.2 |
| 20260902205805 | 63 | 180 | 0.0 | 0.0 | 0.00 | 0.00 | 0.00 | 72 | 1075.2 |
| 20260902205335 | 63 | 180 | 0.0 | 0.0 | 0.00 | 0.00 | 0.00 | 72 | 1075.1 |
| 20260902204905 | 63 | 180 | 0.0 | 0.0 | 0.00 | 0.00 | 0.00 | 72 | 1075.0 |
| 20260902204438 | 63 | 180 | 0.0 | 0.0 | 0.00 | 0.00 | 0.00 | 71 | 1075.0 |
| 20260902204434 | 63 | 180 | 0.0 | 0.0 | 0.00 | 0.00 | 0.00 | 71 | 1075.0 |
| 20260902204008 | 63 | 180 | 0.0 | 0.0 | 0.00 | 0.00 | 0.00 | 70 | 1075.0 |
| 20260902204004 | 63 | 180 | 0.0 | 0.0 | 0.00 | 0.00 | 0.00 | 70 | 1075.0 |
| 20260902203537 | 63 | 180 | 0.0 | 0.0 | 0.00 | 0.00 | 0.00 | 68 | 1075.0 |
| 20260902203534 | 63 | 180 | 0.0 | 0.0 | 0.00 | 0.00 | 0.00 | 68 | 1075.0 |
| 20260902203107 | 63 | 180 | 0.0 | 0.0 | 0.00 | 0.00 | 0.00 | 67 | 1074.9 |
| 20260902203103 | 63 | 180 | 0.0 | 0.0 | 0.00 | 0.00 | 0.00 | 67 | 1074.9 |
| 20260902202637 | 63 | 180 | 0.0 | 0.0 | 0.00 | 0.00 | 0.00 | 66 | 1074.9 |
| 20260902202633 | 63 | 180 | 0.0 | 0.0 | 0.00 | 0.00 | 0.00 | 66 | 1074.9 |
| 20260902202206 | 63 | 180 | 0.0 | 0.0 | 0.00 | 0.00 | 0.00 | 65 | 1074.8 |
| 20260902202203 | 63 | 180 | 0.0 | 0.0 | 0.00 | 0.00 | 0.00 | 65 | 1074.8 |
| 20260902201736 | 63 | 180 | 0.0 | 0.0 | 0.00 | 0.00 | 0.00 | 66 | 1074.9 |
| 20260902201732 | 63 | 180 | 0.0 | 0.0 | 0.00 | 0.00 | 0.00 | 66 | 1074.9 |
| 20260902201306 | 63 | 180 | 0.0 | 0.0 | 0.00 | 0.00 | 0.00 | 66 | 1074.9 |
| 20260902201302 | 63 | 180 | 0.0 | 0.0 | 0.00 | 0.00 | 0.00 | 66 | 1074.9 |
| 20260902200832 | 63 | 180 | 0.0 | 0.0 | 0.00 | 0.00 | 0.00 | 64 | 1074.8 |
| 20260902200405 | 63 | 180 | 0.0 | 0.0 | 0.00 | 0.00 | 0.00 | 63 | 1074.8 |
| 20260902200401 | 63 | 180 | 0.0 | 0.0 | 0.00 | 0.00 | 0.00 | 63 | 1074.8 |
| 20260902195931 | 63 | 180 | 0.0 | 0.0 | 0.00 | 0.00 | 0.00 | 63 | 1074.7 |
| 20260902195500 | 63 | 180 | 0.0 | 0.0 | 0.00 | 0.00 | 0.00 | 62 | 1074.7 |
| 20260902195030 | 64 | 180 | 0.0 | 0.0 | 0.00 | 0.00 | 0.00 | 60 | 1074.7 |
| 20260902194603 | 64 | 180 | 0.0 | 0.0 | 0.00 | 0.00 | 0.00 | 60 | 1074.7 |
| 20260902194600 | 64 | 180 | 0.0 | 0.0 | 0.00 | 0.00 | 0.00 | 60 | 1074.7 |
| 20260902194133 | 64 | 180 | 0.0 | 0.0 | 0.00 | 0.00 | 0.00 | 59 | 1074.7 |
| 20260902194129 | 64 | 180 | 0.0 | 0.0 | 0.00 | 0.00 | 0.00 | 59 | 1074.7 |
| 20260902193659 | 65 | 180 | 0.0 | 0.0 | 0.00 | 0.00 | 0.00 | 59 | 1074.6 |
| 20260902193232 | 65 | 180 | 0.0 | 0.0 | 0.00 | 0.00 | 0.00 | 58 | 1074.7 |
| 20260902193228 | 65 | 180 | 0.0 | 0.0 | 0.00 | 0.00 | 0.00 | 58 | 1074.7 |
| 20260902192802 | 65 | 180 | 0.0 | 0.0 | 0.00 | 0.00 | 0.00 | 57 | 1074.7 |
| 20260902192758 | 65 | 180 | 0.0 | 0.0 | 0.00 | 0.00 | 0.00 | 57 | 1074.7 |
| 20260902192327 | 65 | 180 | 0.0 | 0.0 | 0.00 | 0.00 | 0.00 | 57 | 1074.7 |
| 20260902191857 | 66 | 180 | 0.0 | 0.0 | 0.00 | 0.00 | 0.00 | 56 | 1074.7 |
| 20260902191430 | 66 | 180 | 0.0 | 0.0 | 0.00 | 0.00 | 0.00 | 55 | 1074.7 |
| 20260902191426 | 66 | 180 | 0.0 | 0.0 | 0.00 | 0.00 | 0.00 | 55 | 1074.7 |
| 20260902191000 | 67 | 180 | 0.0 | 0.0 | 0.00 | 0.00 | 0.00 | 55 | 1074.6 |
| 20260902190529 | 67 | 180 | 0.0 | 0.0 | 0.00 | 0.00 | 0.00 | 54 | 1074.6 |
| 20260902190525 | 67 | 180 | 0.0 | 0.0 | 0.00 | 0.00 | 0.00 | 54 | 1074.6 |
| 20260902190055 | 67 | 180 | 0.0 | 0.0 | 0.00 | 0.00 | 0.00 | 53 | 1074.6 |
| 20260902185628 | 68 | 180 | 0.0 | 0.0 | 0.00 | 0.00 | 0.00 | 51 | 1074.6 |
| 20260902185624 | 68 | 180 | 0.0 | 0.0 | 0.00 | 0.00 | 0.00 | 51 | 1074.6 |
| 20260902185153 | 69 | 180 | 0.0 | 0.0 | 0.00 | 0.00 | 0.00 | 50 | 1074.7 |
| 20260902184723 | 69 | 180 | 0.0 | 0.0 | 0.00 | 0.00 | 0.00 | 48 | 1075.0 |
| 20260902184252 | 70 | 180 | 0.0 | 0.0 | 0.00 | 0.00 | 0.00 | 47 | 1074.8 |
| 20260902182920 | 70 | 180 | 0.0 | 0.0 | 0.00 | 0.00 | 0.00 | 46 | 1074.3 |
| 20260902182449 | 70 | 180 | 0.0 | 0.0 | 0.00 | 0.00 | 0.00 | 46 | 1074.2 |
| 20260902182018 | 70 | 180 | 0.0 | 0.0 | 0.00 | 0.00 | 0.00 | 46 | 1074.1 |
| 20260902181548 | 71 | 180 | 0.0 | 0.0 | 0.00 | 0.00 | 0.00 | 45 | 1074.0 |
| 20260902181118 | 71 | 180 | 0.0 | 0.0 | 0.00 | 0.00 | 0.00 | 45 | 1074.1 |
| 20260902180646 | 71 | 180 | 0.0 | 0.0 | 0.00 | 0.00 | 0.00 | 45 | 1074.0 |
| 20260902180215 | 71 | 180 | 0.0 | 0.0 | 0.00 | 0.00 | 0.00 | 45 | 1073.9 |
| 20260902175745 | 71 | 180 | 0.0 | 0.0 | 0.00 | 0.00 | 0.00 | 45 | 1073.9 |
| 20260902175314 | 71 | 180 | 0.0 | 0.0 | 0.00 | 0.00 | 0.00 | 44 | 1073.8 |
| 20260902174843 | 72 | 180 | 0.0 | 0.0 | 0.00 | 0.00 | 0.00 | 44 | 1073.8 |
| 20260902174412 | 72 | 180 | 0.0 | 0.0 | 0.00 | 0.00 | 0.00 | 44 | 1073.8 |
| 20260902173942 | 72 | 180 | 0.0 | 0.0 | 0.00 | 0.00 | 0.00 | 44 | 1073.7 |
| 20260902173511 | 72 | 180 | 0.0 | 0.0 | 0.00 | 0.00 | 0.00 | 44 | 1073.7 |
| 20260902173040 | 73 | 180 | 0.0 | 0.0 | 0.00 | 0.00 | 0.00 | 44 | 1073.8 |
| 20260902172609 | 73 | 180 | 0.0 | 0.0 | 0.00 | 0.00 | 0.00 | 43 | 1073.7 |
| 20260902172138 | 73 | 180 | 0.0 | 0.0 | 0.00 | 0.00 | 0.00 | 43 | 1073.7 |
| 20260902171707 | 73 | 180 | 0.0 | 0.0 | 0.00 | 0.00 | 0.00 | 43 | 1073.7 |
| 20260902171236 | 73 | 180 | 0.0 | 0.0 | 0.00 | 0.00 | 0.00 | 43 | 1073.7 |
| 20260902170806 | 74 | 180 | 0.0 | 0.0 | 0.00 | 0.00 | 0.00 | 43 | 1073.7 |
| 20260902165904 | 74 | 180 | 0.0 | 0.0 | 0.00 | 0.00 | 0.00 | 43 | 1073.7 |
| 20260902165433 | 74 | 180 | 0.0 | 0.0 | 0.00 | 0.00 | 0.00 | 43 | 1073.8 |
| 20260902164531 | 74 | 180 | 0.0 | 0.0 | 0.00 | 0.00 | 0.00 | 42 | 1073.9 |
| 20260902164100 | 75 | 180 | 0.0 | 0.0 | 0.00 | 0.00 | 0.00 | 42 | 1073.9 |
| 20260902163633 | 75 | 180 | 0.0 | 0.0 | 0.00 | 0.00 | 0.00 | 42 | 1073.8 |
| 20260902163629 | 75 | 180 | 0.0 | 0.0 | 0.00 | 0.00 | 0.00 | 42 | 1073.8 |
| 20260902163158 | 75 | 180 | 0.0 | 0.0 | 0.00 | 0.00 | 0.00 | 42 | 1073.8 |
| 20260902162727 | 75 | 180 | 0.0 | 0.0 | 0.00 | 0.00 | 0.00 | 42 | 1073.8 |
| 20260902162256 | 75 | 180 | 0.0 | 0.0 | 0.00 | 0.00 | 0.00 | 42 | 1073.8 |
| 20260902161825 | 75 | 180 | 0.0 | 0.0 | 0.00 | 0.00 | 0.00 | 41 | 1073.8 |
| 20260902161354 | 76 | 180 | 0.0 | 0.0 | 0.00 | 0.00 | 0.00 | 41 | 1073.8 |
| 20260902160928 | 76 | 180 | 0.0 | 0.0 | 0.00 | 0.00 | 0.00 | 41 | 1073.8 |
| 20260902160923 | 76 | 180 | 0.0 | 0.0 | 0.00 | 0.00 | 0.00 | 41 | 1073.8 |
| 20260902160456 | 76 | 180 | 0.0 | 0.0 | 0.00 | 0.00 | 0.00 | 41 | 1073.8 |
| 20260902160452 | 76 | 180 | 0.0 | 0.0 | 0.00 | 0.00 | 0.00 | 41 | 1073.8 |
| 20260902160021 | 76 | 180 | 0.0 | 0.0 | 0.00 | 0.00 | 0.00 | 41 | 1073.7 |
| 20260902155550 | 76 | 180 | 0.0 | 0.0 | 0.00 | 0.00 | 0.00 | 41 | 1073.7 |
| 20260902155124 | 76 | 180 | 0.0 | 0.0 | 0.00 | 0.00 | 0.00 | 41 | 1073.7 |
| 20260902155119 | 76 | 180 | 0.0 | 0.0 | 0.00 | 0.00 | 0.00 | 41 | 1073.7 |
| 20260902154648 | 77 | 180 | 0.0 | 0.0 | 0.00 | 0.00 | 0.00 | 41 | 1073.7 |
| 20260902154217 | 77 | 180 | 0.0 | 0.0 | 0.00 | 0.00 | 0.00 | 40 | 1073.6 |
| 20260902153746 | 77 | 180 | 0.0 | 0.0 | 0.00 | 0.00 | 0.00 | 40 | 1073.7 |
| 20260902153315 | 77 | 180 | 0.0 | 0.0 | 0.00 | 0.00 | 0.00 | 40 | 1073.8 |
| 20260902152844 | 77 | 180 | 0.0 | 0.0 | 0.00 | 0.00 | 0.00 | 40 | 1073.8 |
| 20260902152413 | 77 | 180 | 0.0 | 0.0 | 0.00 | 0.00 | 0.00 | 40 | 1073.8 |
| 20260902151942 | 77 | 180 | 0.0 | 0.0 | 0.00 | 0.00 | 0.00 | 39 | 1073.8 |
| 20260902150137 | 78 | 180 | 0.0 | 0.0 | 0.00 | 0.00 | 0.00 | 39 | 1073.9 |
| 20260902145706 | 79 | 180 | 0.0 | 0.0 | 0.00 | 0.00 | 0.00 | 39 | 1073.9 |
| 20260902145235 | 79 | 180 | 0.0 | 0.0 | 0.00 | 0.00 | 0.00 | 39 | 1073.9 |
| 20260902144804 | 79 | 180 | 0.0 | 0.0 | 0.00 | 0.00 | 0.00 | 38 | 1073.9 |
| 20260902143901 | 80 | 180 | 0.0 | 0.0 | 0.00 | 0.00 | 0.00 | 38 | 1074.0 |
| 20260902143430 | 80 | 180 | 0.0 | 0.0 | 0.00 | 0.00 | 0.00 | 38 | 1074.1 |
| 20260902142959 | 80 | 180 | 0.0 | 0.0 | 0.00 | 0.00 | 0.00 | 39 | 1074.1 |
| 20260902142527 | 80 | 180 | 0.0 | 0.0 | 0.00 | 0.00 | 0.00 | 38 | 1074.1 |
| 20260902142056 | 80 | 180 | 0.0 | 0.0 | 0.00 | 0.00 | 0.00 | 38 | 1074.1 |
| 20260902141625 | 80 | 180 | 0.0 | 0.0 | 0.00 | 0.00 | 0.00 | 38 | 1074.2 |
| 20260902140251 | 81 | 180 | 0.0 | 0.0 | 0.00 | 0.00 | 0.00 | 38 | 1074.2 |
| 20260902135348 | 81 | 180 | 0.0 | 0.0 | 0.00 | 0.00 | 0.00 | 38 | 1074.3 |
| 20260902134917 | 82 | 180 | 0.0 | 0.0 | 0.00 | 0.00 | 0.00 | 38 | 1074.3 |
| 20260902134446 | 81 | 180 | 0.0 | 0.0 | 0.00 | 0.00 | 0.00 | 37 | 1074.3 |
| 20260902134014 | 82 | 180 | 0.0 | 0.0 | 0.00 | 0.00 | 0.00 | 37 | 1074.3 |
| 20260902133543 | 82 | 180 | 0.0 | 0.0 | 0.00 | 0.00 | 0.00 | 37 | 1074.4 |
| 20260902133112 | 82 | 180 | 0.0 | 0.0 | 0.00 | 0.00 | 0.00 | 37 | 1074.4 |
| 20260902132640 | 82 | 180 | 0.0 | 0.0 | 0.00 | 0.00 | 0.00 | 37 | 1074.5 |
| 20260902131737 | 82 | 180 | 0.0 | 0.0 | 0.00 | 0.00 | 0.00 | 37 | 1074.5 |
| 20260902130835 | 83 | 180 | 0.0 | 0.0 | 0.00 | 0.00 | 0.00 | 37 | 1074.5 |
| 20260902130403 | 83 | 180 | 0.0 | 0.0 | 0.00 | 0.00 | 0.00 | 38 | 1074.7 |
| 20260902125932 | 83 | 180 | 0.0 | 0.0 | 0.00 | 0.00 | 0.00 | 38 | 1074.7 |
| 20260902125500 | 83 | 180 | 0.0 | 0.0 | 0.00 | 0.00 | 0.00 | 38 | 1074.7 |
| 20260902124558 | 82 | 180 | 0.0 | 0.0 | 0.00 | 0.00 | 0.00 | 38 | 1074.8 |
| 20260902124126 | 81 | 180 | 0.0 | 0.0 | 0.00 | 0.00 | 0.00 | 38 | 1074.8 |
| 20260902123655 | 81 | 180 | 0.0 | 0.0 | 0.00 | 0.00 | 0.00 | 38 | 1074.9 |
| 20260902123224 | 81 | 180 | 0.0 | 0.0 | 0.00 | 0.00 | 0.00 | 38 | 1075.0 |
| 20260902120947 | 82 | 180 | 0.0 | 0.0 | 0.00 | 0.00 | 0.00 | 37 | 1075.1 |
| 20260902120515 | 82 | 180 | 0.0 | 0.0 | 0.00 | 0.00 | 0.00 | 37 | 1075.1 |
| 20260902120044 | 82 | 180 | 0.0 | 0.0 | 0.00 | 0.00 | 0.00 | 37 | 1075.1 |
| 20260902115613 | 83 | 180 | 0.0 | 0.0 | 0.00 | 0.00 | 0.00 | 37 | 1075.2 |
| 20260902115141 | 83 | 180 | 0.0 | 0.0 | 0.00 | 0.00 | 0.00 | 37 | 1075.2 |
| 20260902114710 | 84 | 180 | 0.0 | 0.0 | 0.00 | 0.00 | 0.00 | 37 | 1075.2 |
| 20260902114238 | 84 | 180 | 0.0 | 0.0 | 0.00 | 0.00 | 0.00 | 37 | 1075.1 |
| 20260902113806 | 85 | 180 | 0.0 | 0.0 | 0.00 | 0.00 | 0.00 | 36 | 1075.2 |
| 20260902112903 | 86 | 180 | 0.0 | 0.0 | 0.00 | 0.00 | 0.00 | 36 | 1075.2 |
| 20260902112431 | 87 | 180 | 0.0 | 0.0 | 0.00 | 0.00 | 0.00 | 36 | 1075.3 |
| 20260902111528 | 88 | 180 | 0.0 | 0.0 | 0.00 | 0.00 | 0.00 | 36 | 1075.4 |
| 20260902111056 | 88 | 180 | 0.0 | 0.0 | 0.00 | 0.00 | 0.00 | 36 | 1075.5 |
| 20260902110624 | 89 | 180 | 0.0 | 0.0 | 0.00 | 0.00 | 0.00 | 36 | 1075.4 |
| 20260902110152 | 90 | 180 | 0.0 | 0.0 | 0.00 | 0.00 | 0.00 | 35 | 1075.5 |
| 20260902105720 | 90 | 180 | 0.0 | 0.0 | 0.00 | 0.00 | 0.00 | 35 | 1075.7 |
| 20260902105248 | 90 | 180 | 0.0 | 0.0 | 0.00 | 0.00 | 0.00 | 35 | 1075.7 |
| 20260902104816 | 92 | 180 | 0.0 | 0.0 | 0.00 | 0.00 | 0.00 | 35 | 1075.7 |
| 20260902104344 | 92 | 180 | 0.0 | 0.9 | 0.00 | 0.00 | 0.00 | 35 | 1075.8 |
| 20260902103912 | 93 | 180 | 0.0 | 0.0 | 0.00 | 0.00 | 0.00 | 35 | 1075.8 |
| 20260902103440 | 94 | 180 | 0.0 | 0.0 | 0.00 | 0.00 | 0.00 | 35 | 1075.9 |
| 20260902103008 | 94 | 180 | 0.0 | 0.0 | 0.00 | 0.00 | 0.00 | 35 | 1075.9 |
| 20260902102535 | 95 | 180 | 0.0 | 0.0 | 0.00 | 0.00 | 0.00 | 35 | 1076.0 |
| 20260902102103 | 95 | 180 | 0.0 | 0.0 | 0.00 | 0.00 | 0.00 | 35 | 1076.0 |
| 20260902101630 | 98 | 180 | 0.0 | 0.0 | 0.00 | 0.00 | 0.00 | 35 | 1076.1 |